Cherokee Falls, South Carolina
Current Conditions -  °F | °C
As of 1:35 AM on Wednesday 26 Nov 2014 (Local Time) from KEHO Reporting Station
Light Rain Light Rain  
Wind Chill: 43°   Ceiling: 2400
Heat Index: 46°   Visibility: 7mi
Dew Point: 44°   Wind: 6mph
Humidity: 92%   Direction: 20°NNE
Pressure: 30"   Gusts: NA
Location:  35.1147°N, 81.4908°W
Report Text: KEHO 260635Z AUTO 02005KT 7SM -RA OVC024 08/07 A3000 RMK AO2 P0003 T00770065
Loading
Personal Weather Stations






























Interactive Weather Map New forecast layout! Learn more

10-Day Weather Forecast

Advertisements
Track Severe Weather on mobile